createdAt,value
2022-08-12T00:00:55.379Z,6.50
2022-08-12T00:03:23.231Z,4.25
2022-08-12T00:06:03.964Z,5.75
2022-08-12T00:08:37.246Z,5.75
2022-08-12T00:11:12.221Z,6.00
2022-08-12T00:13:40.346Z,5.00
2022-08-12T00:16:10.548Z,6.00
2022-08-12T00:18:38.227Z,6.25
2022-08-12T00:21:05.945Z,6.00
2022-08-12T00:23:35.362Z,5.75
2022-08-12T00:26:22.395Z,7.00
2022-08-12T00:28:51.018Z,5.75
2022-08-12T00:31:21.057Z,5.50
2022-08-12T00:33:52.370Z,7.50
2022-08-12T00:36:32.135Z,5.00
2022-08-12T00:39:04.226Z,5.25
2022-08-12T00:41:34.070Z,5.00
2022-08-12T00:44:05.152Z,6.25
2022-08-12T00:46:47.536Z,5.50
2022-08-12T00:49:16.082Z,5.25
2022-08-12T00:51:46.445Z,5.50
2022-08-12T00:54:16.163Z,5.00
2022-08-12T00:56:43.430Z,5.75
2022-08-12T00:59:11.477Z,6.00
2022-08-12T01:02:11.689Z,3.25
2022-08-12T01:04:33.907Z,5.00
2022-08-12T01:07:05.094Z,4.50
2022-08-12T01:09:34.071Z,6.25
2022-08-12T01:12:02.839Z,5.40
2022-08-12T01:14:31.910Z,5.75
2022-08-12T01:17:03.367Z,6.00
2022-08-12T01:19:30.746Z,6.00
2022-08-12T01:22:22.434Z,5.75
2022-08-12T01:24:57.891Z,6.00
2022-08-12T01:27:31.905Z,7.00
2022-08-12T01:30:08.322Z,6.75
2022-08-12T01:32:40.323Z,6.25
2022-08-12T01:35:11.724Z,5.25
2022-08-12T01:37:47.730Z,7.00
2022-08-12T01:40:33.409Z,5.25
2022-08-12T01:43:07.589Z,7.00
2022-08-12T01:45:46.005Z,5.75
2022-08-12T01:48:28.957Z,6.00
2022-08-12T01:51:08.385Z,5.00
2022-08-12T01:54:00.040Z,7.00
2022-08-12T01:56:44.364Z,5.25
2022-08-12T01:59:20.832Z,6.00
2022-08-12T02:01:54.231Z,5.50
2022-08-12T02:04:36.777Z,4.50
2022-08-12T02:07:20.084Z,6.00
2022-08-12T02:10:00.710Z,6.00
2022-08-12T02:12:48.550Z,6.25
2022-08-12T02:15:34.740Z,5.75
2022-08-12T02:18:16.906Z,6.00
2022-08-12T02:20:57.330Z,5.00
2022-08-12T02:23:26.607Z,7.50
2022-08-12T02:26:01.162Z,6.75
2022-08-12T02:28:30.698Z,5.50
2022-08-12T02:31:05.784Z,7.50
2022-08-12T02:33:34.838Z,5.25
2022-08-12T02:36:03.561Z,6.00
2022-08-12T02:38:31.629Z,4.75
2022-08-12T02:41:02.962Z,5.50
2022-08-12T02:43:39.627Z,6.00
2022-08-12T02:46:14.455Z,6.00
2022-08-12T02:48:50.121Z,6.00
2022-08-12T02:51:23.594Z,6.00
2022-08-12T02:54:04.615Z,4.00
2022-08-12T02:56:35.728Z,6.00
2022-08-12T02:59:05.225Z,5.00
2022-08-12T03:01:34.797Z,5.00
2022-08-12T03:04:06.913Z,6.75
2022-08-12T03:06:53.508Z,3.50
2022-08-12T03:09:24.411Z,5.25
2022-08-12T03:12:02.726Z,5.75
2022-08-12T03:14:35.238Z,6.50
2022-08-12T03:17:16.006Z,6.75
2022-08-12T03:20:09.953Z,6.00
2022-08-12T03:22:31.572Z,6.00
2022-08-12T03:25:00.680Z,6.00
2022-08-12T03:27:30.315Z,7.75
2022-08-12T03:29:59.577Z,6.00
2022-08-12T03:32:36.353Z,5.75
2022-08-12T03:35:05.275Z,7.00
2022-08-12T03:37:35.419Z,6.00
2022-08-12T03:40:02.684Z,5.25
2022-08-12T03:42:38.246Z,6.00
2022-08-12T03:45:21.827Z,5.00
2022-08-12T03:47:57.026Z,7.00
2022-08-12T03:50:26.177Z,6.00
2022-08-12T03:52:53.103Z,6.50
2022-08-12T03:55:20.685Z,7.00
2022-08-12T03:57:49.398Z,6.00
2022-08-12T04:00:24.198Z,7.25
2022-08-12T04:02:52.089Z,6.25
2022-08-12T04:05:21.665Z,5.25
2022-08-12T04:07:57.957Z,7.00
2022-08-12T04:10:29.369Z,6.00
2022-08-12T04:12:57.669Z,6.00
2022-08-12T04:15:27.020Z,6.25
2022-08-12T04:18:06.430Z,7.00
2022-08-12T04:20:34.025Z,6.00
2022-08-12T04:23:01.759Z,6.00
2022-08-12T04:25:32.278Z,8.00
2022-08-12T04:28:11.377Z,8.50
2022-08-12T04:30:42.561Z,6.00
2022-08-12T04:33:09.530Z,7.25
2022-08-12T04:35:36.756Z,6.00
2022-08-12T04:38:03.776Z,7.75
2022-08-12T04:40:34.290Z,7.75
2022-08-12T04:43:02.164Z,6.00
2022-08-12T04:45:30.622Z,7.75
2022-08-12T04:47:59.843Z,9.00
2022-08-12T04:50:33.907Z,6.00
2022-08-12T04:53:06.072Z,7.25
2022-08-12T04:55:34.058Z,5.00
2022-08-12T04:58:01.165Z,7.20
2022-08-12T05:00:28.255Z,7.40
2022-08-12T05:02:55.206Z,5.00
2022-08-12T05:05:24.326Z,6.00
2022-08-12T05:07:54.953Z,7.80
2022-08-12T05:10:33.572Z,7.60
2022-08-12T05:13:09.073Z,7.20
2022-08-12T05:16:05.097Z,6.80
2022-08-12T05:18:29.086Z,5.60
2022-08-12T05:20:58.162Z,5.40
2022-08-12T05:23:25.416Z,6.20
2022-08-12T05:25:53.622Z,6.00
2022-08-12T05:28:20.857Z,5.20
2022-08-12T05:30:47.785Z,7.00
2022-08-12T05:33:15.011Z,7.20
2022-08-12T05:35:44.523Z,7.00
2022-08-12T05:38:15.519Z,7.20
2022-08-12T05:40:43.065Z,6.60
2022-08-12T05:43:10.015Z,6.40
2022-08-12T05:45:40.509Z,7.00
2022-08-12T05:48:09.985Z,7.40
2022-08-12T05:50:37.135Z,7.60
2022-08-12T05:53:04.183Z,4.20
2022-08-12T05:55:33.302Z,5.80
2022-08-12T05:58:01.229Z,6.00
2022-08-12T06:00:28.666Z,4.40
2022-08-12T06:02:56.468Z,5.80
2022-08-12T06:05:23.505Z,4.40
2022-08-12T06:08:01.836Z,5.00
2022-08-12T06:10:36.197Z,6.40
2022-08-12T06:13:06.553Z,4.40
2022-08-12T06:15:35.836Z,4.60
2022-08-12T06:18:13.925Z,5.40
2022-08-12T06:20:47.030Z,6.60
2022-08-12T06:23:14.149Z,5.20
2022-08-12T06:25:43.223Z,5.20
2022-08-12T06:28:15.446Z,5.00
2022-08-12T06:30:57.382Z,5.00
2022-08-12T06:33:33.816Z,4.40
2022-08-12T06:36:24.526Z,3.80
2022-08-12T06:38:57.779Z,4.60
2022-08-12T06:41:26.086Z,4.20
2022-08-12T06:44:06.278Z,5.00
2022-08-12T06:46:35.639Z,3.00
2022-08-12T06:49:02.561Z,4.20
2022-08-12T06:51:32.250Z,4.80
2022-08-12T06:54:01.333Z,3.00
2022-08-12T06:57:00.121Z,4.40
2022-08-12T06:59:17.119Z,4.20
2022-08-12T07:01:49.850Z,4.00
2022-08-12T07:04:37.513Z,4.00
2022-08-12T07:07:07.130Z,4.00
2022-08-12T07:10:06.033Z,2.80
2022-08-12T07:12:24.310Z,7.80
2022-08-12T07:14:55.853Z,4.80
2022-08-12T07:17:23.214Z,4.00
2022-08-12T07:19:50.239Z,4.00
2022-08-12T07:22:17.142Z,4.00
2022-08-12T07:24:44.326Z,4.00
2022-08-12T07:27:11.180Z,4.00
2022-08-12T07:29:58.321Z,4.60
2022-08-12T07:32:29.837Z,3.75
2022-08-12T07:34:56.929Z,4.00
2022-08-12T07:37:23.835Z,4.00
2022-08-12T07:40:00.432Z,4.75
2022-08-12T07:42:29.074Z,3.25
2022-08-12T07:44:57.370Z,5.00
2022-08-12T07:47:25.137Z,3.25
2022-08-12T07:50:04.750Z,2.25
2022-08-12T07:52:34.102Z,4.75
2022-08-12T07:55:01.640Z,2.75
2022-08-12T07:57:30.171Z,3.75
2022-08-12T07:59:58.718Z,2.75
2022-08-12T08:02:26.716Z,3.60
2022-08-12T08:04:54.779Z,2.20
2022-08-12T08:07:21.951Z,2.00
2022-08-12T08:09:50.043Z,4.00
2022-08-12T08:12:26.908Z,3.00
2022-08-12T08:14:56.118Z,4.00
2022-08-12T08:17:25.061Z,4.00
2022-08-12T08:20:03.825Z,3.40
2022-08-12T08:22:41.950Z,2.60
2022-08-12T08:25:20.471Z,3.00
2022-08-12T08:28:01.206Z,3.20
2022-08-12T08:30:31.146Z,3.00
2022-08-12T08:33:00.711Z,4.00
2022-08-12T08:35:47.000Z,3.20
2022-08-12T08:38:32.000Z,3.20
2022-08-12T08:41:01.330Z,3.20
2022-08-12T08:43:44.289Z,2.00
2022-08-12T08:46:11.884Z,4.00
2022-08-12T08:48:40.569Z,3.00
2022-08-12T08:51:07.603Z,4.20
2022-08-12T08:53:35.084Z,3.00
2022-08-12T08:56:04.977Z,3.40
2022-08-12T08:58:33.634Z,3.00
2022-08-12T09:01:00.549Z,3.40
2022-08-12T09:05:09.237Z,3.80
2022-08-12T09:06:17.181Z,3.20
2022-08-12T09:08:46.354Z,3.80
2022-08-12T09:12:06.688Z,3.40
2022-08-12T09:16:53.093Z,4.80
2022-08-12T09:22:18.353Z,5.40
2022-08-12T09:24:47.929Z,4.00
2022-08-12T09:27:15.397Z,4.00
2022-08-12T09:30:10.186Z,3.80
2022-08-12T09:33:04.180Z,3.00
2022-08-12T09:35:28.620Z,3.00
2022-08-12T09:38:01.289Z,4.80
2022-08-12T09:40:57.248Z,3.20
2022-08-12T09:43:18.878Z,3.60
2022-08-12T09:46:14.107Z,2.00
2022-08-12T09:48:35.055Z,3.00
2022-08-12T09:51:04.350Z,3.00
2022-08-12T09:53:38.541Z,4.00
2022-08-12T09:56:58.400Z,3.00
2022-08-12T09:59:00.145Z,3.60
2022-08-12T10:01:35.082Z,3.00
2022-08-12T10:04:19.606Z,4.80
2022-08-12T10:06:53.800Z,3.40
2022-08-12T10:09:28.528Z,3.60
2022-08-12T10:12:13.832Z,3.60
2022-08-12T10:14:50.186Z,3.00
2022-08-12T10:17:20.888Z,3.00
2022-08-12T10:19:51.975Z,3.20
2022-08-12T10:22:38.965Z,4.00
2022-08-12T10:25:17.740Z,4.00
2022-08-12T10:28:04.562Z,2.20
2022-08-12T10:30:42.157Z,4.00
2022-08-12T10:33:19.086Z,3.00
2022-08-12T10:35:46.927Z,2.40
2022-08-12T10:38:37.962Z,3.00
2022-08-12T10:41:03.988Z,3.20
2022-08-12T10:43:55.133Z,3.40
2022-08-12T10:46:18.309Z,4.40
2022-08-12T10:48:58.355Z,3.20
2022-08-12T10:52:04.973Z,3.20
2022-08-12T10:54:20.337Z,4.40
2022-08-12T10:56:56.308Z,3.80
2022-08-12T11:00:30.205Z,3.60
2022-08-12T11:04:26.258Z,5.60
2022-08-12T11:04:58.939Z,3.00
2022-08-12T11:08:36.889Z,3.60
2022-08-12T11:10:15.875Z,3.80
2022-08-12T11:12:59.455Z,4.00
2022-08-12T11:15:33.236Z,2.40
2022-08-12T11:18:18.410Z,2.80
2022-08-12T11:20:47.086Z,2.80
2022-08-12T11:23:24.981Z,3.00
2022-08-12T11:26:05.645Z,2.00
2022-08-12T11:28:36.920Z,3.60
2022-08-12T11:31:12.155Z,3.00
2022-08-12T11:34:06.235Z,3.00
2022-08-12T11:36:29.743Z,3.60
2022-08-12T11:38:58.230Z,2.40
2022-08-12T11:41:31.450Z,3.00
2022-08-12T11:44:02.028Z,3.00
2022-08-12T11:46:51.464Z,3.00
2022-08-12T11:49:31.168Z,3.60
2022-08-12T11:52:01.716Z,2.00
2022-08-12T11:54:29.841Z,3.00
2022-08-12T11:57:00.494Z,2.60
2022-08-12T12:02:21.333Z,2.80
2022-08-12T12:04:52.315Z,2.00
2022-08-12T12:07:22.156Z,3.00
2022-08-12T12:09:52.351Z,3.00
2022-08-12T12:12:31.441Z,2.80
2022-08-12T12:15:03.171Z,2.40
2022-08-12T12:17:38.361Z,3.00
2022-08-12T12:20:08.967Z,2.00
2022-08-12T12:22:37.446Z,4.00
2022-08-12T12:25:12.946Z,2.80
2022-08-12T12:28:05.162Z,2.60
2022-08-12T12:30:35.314Z,2.00
2022-08-12T12:33:03.256Z,3.20
2022-08-12T12:36:06.626Z,2.80
2022-08-12T12:38:18.047Z,3.00
2022-08-12T12:40:50.424Z,3.20
2022-08-12T12:43:29.090Z,3.00
2022-08-12T12:46:08.728Z,2.80
2022-08-12T12:48:36.096Z,3.80
2022-08-12T12:51:03.334Z,3.00
2022-08-12T12:54:07.187Z,2.40
2022-08-12T12:56:34.642Z,2.40
2022-08-12T12:59:02.826Z,3.00
2022-08-12T13:01:38.362Z,3.20
2022-08-12T13:04:12.344Z,2.40
2022-08-12T13:06:41.660Z,3.00
2022-08-12T13:09:12.931Z,3.20
2022-08-12T13:11:41.939Z,2.60
2022-08-12T13:14:29.551Z,3.00
2022-08-12T13:17:02.784Z,3.00
2022-08-12T13:19:37.596Z,3.00
2022-08-12T13:22:10.534Z,3.00
2022-08-12T13:24:38.018Z,3.20
2022-08-12T13:27:05.156Z,4.20
2022-08-12T13:29:33.536Z,2.80
2022-08-12T13:32:28.267Z,3.20
2022-08-12T13:34:52.030Z,4.00
2022-08-12T13:37:19.926Z,3.00
2022-08-12T13:39:46.951Z,4.00
2022-08-12T13:42:16.914Z,2.80
2022-08-12T13:44:46.254Z,2.80
2022-08-12T13:47:19.817Z,1.00
2022-08-12T13:49:54.438Z,3.00
2022-08-12T13:52:26.100Z,3.20
2022-08-12T13:54:54.186Z,3.00
2022-08-12T13:57:38.049Z,3.00
2022-08-12T14:00:15.090Z,3.40
2022-08-12T14:02:45.164Z,3.00
2022-08-12T14:05:31.492Z,2.00
2022-08-12T14:08:03.995Z,3.00
2022-08-12T14:10:37.925Z,1.20
2022-08-12T14:13:10.333Z,3.00
2022-08-12T14:15:46.483Z,3.00
2022-08-12T14:18:19.251Z,4.20
2022-08-12T14:20:54.640Z,3.80
2022-08-12T14:24:04.295Z,2.20
2022-08-12T14:26:17.069Z,3.00
2022-08-12T14:32:29.680Z,3.00
2022-08-12T14:34:57.955Z,3.00
2022-08-12T14:37:55.045Z,3.40
2022-08-12T14:40:18.510Z,3.00
2022-08-12T14:42:46.869Z,2.80
2022-08-12T14:45:14.636Z,4.00
2022-08-12T14:47:49.891Z,3.20
2022-08-12T14:50:58.723Z,3.00
2022-08-12T14:58:40.301Z,3.20
2022-08-12T15:01:21.483Z,3.80
2022-08-12T15:03:53.919Z,2.00
2022-08-12T15:06:39.862Z,3.00
2022-08-12T15:09:12.568Z,2.00
2022-08-12T15:11:55.751Z,2.60
2022-08-12T15:14:30.318Z,3.00
2022-08-12T15:17:00.447Z,3.60
2022-08-12T15:20:30.711Z,3.40
2022-08-12T15:22:37.331Z,3.00
2022-08-12T15:25:07.177Z,3.40
2022-08-12T15:28:05.528Z,3.00
2022-08-12T15:30:23.271Z,2.00
2022-08-12T15:32:50.454Z,2.00
2022-08-12T15:35:17.750Z,2.20
2022-08-12T15:38:10.477Z,0.00
2022-08-12T15:40:48.494Z,3.00
2022-08-12T15:43:51.403Z,2.60
2022-08-12T15:46:09.069Z,0.00
2022-08-12T15:48:43.831Z,2.60
2022-08-12T15:51:59.444Z,1.40
2022-08-12T15:54:30.720Z,2.00
2022-08-12T15:57:10.762Z,2.20
2022-08-12T16:00:02.346Z,2.00
2022-08-12T16:02:50.445Z,1.00
2022-08-12T16:06:10.506Z,2.20
2022-08-12T16:08:17.449Z,2.00
2022-08-12T16:10:48.528Z,2.60
2022-08-12T16:13:17.591Z,2.80
2022-08-12T16:15:50.921Z,2.00
2022-08-12T16:18:29.069Z,1.20
2022-08-12T16:20:55.913Z,1.40
2022-08-12T16:23:36.347Z,2.00
2022-08-12T16:26:15.116Z,2.00
2022-08-12T16:28:44.145Z,2.00
2022-08-12T16:31:22.523Z,2.80
2022-08-12T16:33:59.534Z,1.80
2022-08-12T16:36:29.404Z,2.00
2022-08-12T16:38:56.779Z,2.00
2022-08-12T16:41:28.315Z,1.20
2022-08-12T16:44:00.709Z,0.00
2022-08-12T16:46:33.562Z,1.00
2022-08-12T16:49:09.049Z,1.00
2022-08-12T16:51:46.555Z,1.00
2022-08-12T16:54:16.528Z,2.00
2022-08-12T16:56:51.174Z,2.00
2022-08-12T16:59:22.174Z,1.20
2022-08-12T17:01:52.144Z,1.20
2022-08-12T17:04:24.297Z,1.80
2022-08-12T17:06:52.043Z,2.00
2022-08-12T17:09:20.478Z,1.00
2022-08-12T17:11:50.324Z,2.80
2022-08-12T17:14:22.992Z,2.00
2022-08-12T17:16:51.473Z,2.00
2022-08-12T17:19:25.235Z,2.00
2022-08-12T17:22:11.033Z,1.60
2022-08-12T17:24:54.642Z,2.00
2022-08-12T17:27:31.116Z,2.00
2022-08-12T17:30:04.468Z,2.00
2022-08-12T17:32:32.818Z,1.20
2022-08-12T17:35:01.130Z,0.00
2022-08-12T17:37:35.617Z,1.00
2022-08-12T17:40:15.777Z,2.20
2022-08-12T17:42:48.827Z,1.80
2022-08-12T17:45:18.517Z,1.00
2022-08-12T17:48:01.696Z,2.00
2022-08-12T17:50:35.093Z,0.00
2022-08-12T17:53:03.784Z,1.60
2022-08-12T17:55:43.524Z,1.80
2022-08-12T17:58:21.505Z,1.60
2022-08-12T18:00:50.917Z,2.40
2022-08-12T18:04:04.263Z,2.00
2022-08-12T18:06:14.268Z,2.00
2022-08-12T18:08:53.572Z,1.00
2022-08-12T18:12:04.026Z,1.60
2022-08-12T18:14:22.634Z,1.80
2022-08-12T18:16:57.857Z,1.40
2022-08-12T18:19:34.191Z,2.00
2022-08-12T18:22:22.196Z,2.00
2022-08-12T18:25:03.722Z,1.60
2022-08-12T18:27:43.851Z,1.40
2022-08-12T18:30:20.595Z,1.20
2022-08-12T18:33:05.430Z,1.60
2022-08-12T18:35:46.835Z,1.80
2022-08-12T18:38:22.339Z,2.00
2022-08-12T18:40:50.687Z,1.00
2022-08-12T18:43:18.825Z,1.40
2022-08-12T18:45:57.016Z,1.00
2022-08-12T18:48:25.283Z,2.20
2022-08-12T18:51:06.485Z,2.00
2022-08-12T18:54:07.286Z,2.00
2022-08-12T18:56:33.914Z,2.00
2022-08-12T18:59:03.884Z,1.40
2022-08-12T19:02:19.622Z,2.00
2022-08-12T19:04:21.421Z,1.60
2022-08-12T19:06:49.127Z,2.20
2022-08-12T19:09:17.202Z,1.20
2022-08-12T19:11:47.102Z,2.80
2022-08-12T19:14:16.173Z,2.20
2022-08-12T19:16:46.390Z,2.00
2022-08-12T19:19:17.346Z,2.00
2022-08-12T19:21:56.421Z,2.00
2022-08-12T19:24:24.878Z,2.20
2022-08-12T19:26:57.295Z,2.20
2022-08-12T19:29:24.752Z,1.40
2022-08-12T19:31:58.690Z,3.20
2022-08-12T19:35:54.160Z,3.40
2022-08-12T19:37:22.967Z,2.40
2022-08-12T19:40:10.278Z,2.60
2022-08-12T19:42:53.295Z,2.00
2022-08-12T19:45:22.210Z,2.80
2022-08-12T19:47:50.584Z,2.00
2022-08-12T19:50:19.631Z,2.40
2022-08-12T19:52:47.490Z,2.00
2022-08-12T19:55:21.379Z,3.00
2022-08-12T19:58:01.808Z,2.00
2022-08-12T20:00:34.502Z,1.40
2022-08-12T20:03:05.728Z,2.60
2022-08-12T20:06:04.702Z,3.00
2022-08-12T20:08:33.993Z,3.40
2022-08-12T20:12:14.234Z,2.40
2022-08-12T20:14:00.412Z,2.60
2022-08-12T20:19:19.789Z,2.00
2022-08-12T20:21:46.751Z,3.00
2022-08-12T20:24:14.500Z,2.00
2022-08-12T20:26:42.981Z,2.20
2022-08-12T20:29:12.595Z,2.00
2022-08-12T20:31:41.391Z,2.80
2022-08-12T20:34:12.461Z,2.00
2022-08-12T20:36:44.137Z,2.00
2022-08-12T20:39:17.492Z,2.60
2022-08-12T20:42:07.167Z,1.80
2022-08-12T20:44:37.811Z,2.00
2022-08-12T20:47:18.525Z,2.40
2022-08-12T20:49:55.963Z,2.00
2022-08-12T20:52:30.322Z,2.40
2022-08-12T20:54:58.138Z,0.60
2022-08-12T20:57:37.723Z,2.20
2022-08-12T21:00:08.314Z,2.60
2022-08-12T21:02:38.973Z,2.20
2022-08-12T21:05:16.357Z,3.20
2022-08-12T21:07:51.991Z,3.00
2022-08-12T21:10:20.894Z,1.80
2022-08-12T21:12:48.456Z,3.00
2022-08-12T21:15:23.614Z,2.20
2022-08-12T21:18:09.380Z,2.80
2022-08-12T21:20:42.732Z,2.00
2022-08-12T21:23:12.163Z,3.00
2022-08-12T21:25:45.101Z,2.00
2022-08-12T21:28:13.394Z,2.00
2022-08-12T21:30:41.118Z,1.80
2022-08-12T21:33:22.007Z,2.40
2022-08-12T21:35:48.875Z,2.00
2022-08-12T21:38:18.719Z,2.00
2022-08-12T21:40:52.147Z,2.40
2022-08-12T21:43:19.802Z,2.20
2022-08-12T21:46:00.537Z,3.00
2022-08-12T21:48:29.072Z,3.00
2022-08-12T21:50:56.423Z,2.00
2022-08-12T21:54:06.284Z,3.00
2022-08-12T21:56:20.543Z,3.40
2022-08-12T21:59:01.213Z,2.00
2022-08-12T22:01:30.261Z,2.80
2022-08-12T22:04:03.230Z,3.20
2022-08-12T22:06:43.747Z,3.00
2022-08-12T22:09:15.769Z,4.00
2022-08-12T22:11:49.146Z,3.20
2022-08-12T22:14:24.200Z,2.20
2022-08-12T22:16:54.640Z,3.00
2022-08-12T22:19:23.355Z,2.40
2022-08-12T22:21:54.660Z,2.00
2022-08-12T22:24:26.366Z,2.00
2022-08-12T22:27:14.485Z,2.00
2022-08-12T22:29:49.673Z,3.00
2022-08-12T22:32:16.517Z,2.00
2022-08-12T22:34:47.210Z,2.00
2022-08-12T22:37:19.986Z,3.00
2022-08-12T22:39:49.053Z,2.80
2022-08-12T22:42:19.830Z,3.20
2022-08-12T22:44:52.533Z,3.00
2022-08-12T22:47:53.144Z,3.00
2022-08-12T22:50:27.843Z,2.00
2022-08-12T22:52:56.271Z,5.00
2022-08-12T22:56:00.743Z,3.40
2022-08-12T22:58:12.597Z,3.00
2022-08-12T23:00:39.711Z,3.00
2022-08-12T23:03:06.606Z,4.40
2022-08-12T23:05:57.074Z,4.00
2022-08-12T23:08:23.690Z,2.20
2022-08-12T23:10:59.751Z,4.00
2022-08-12T23:13:27.680Z,3.00
2022-08-12T23:16:27.763Z,2.40
2022-08-12T23:19:10.851Z,3.00
2022-08-12T23:22:06.077Z,3.40
2022-08-12T23:24:36.774Z,2.60
2022-08-12T23:27:09.711Z,3.60
2022-08-12T23:29:43.166Z,3.00
2022-08-12T23:32:11.242Z,3.20
2022-08-12T23:34:38.406Z,4.20
2022-08-12T23:37:07.718Z,3.40
2022-08-12T23:40:15.376Z,3.00
2022-08-12T23:42:30.709Z,3.80
2022-08-12T23:44:58.519Z,2.20
2022-08-12T23:47:30.904Z,4.00
2022-08-12T23:50:13.085Z,3.00
2022-08-12T23:52:46.816Z,4.00
2022-08-12T23:55:25.009Z,3.80
2022-08-12T23:58:20.906Z,3.80
